createdAt,value
2017-09-05T00:01:12.144Z,91.00
2017-09-05T00:03:40.576Z,91.30
2017-09-05T00:06:09.200Z,91.30
2017-09-05T00:08:38.358Z,91.30
2017-09-05T00:11:17.465Z,91.40
2017-09-05T00:13:50.756Z,91.50
2017-09-05T00:16:33.886Z,91.60
2017-09-05T00:19:06.316Z,91.70
2017-09-05T00:21:35.324Z,91.90
2017-09-05T00:24:03.559Z,91.60
2017-09-05T00:26:32.458Z,91.60
2017-09-05T00:29:00.761Z,91.70
2017-09-05T00:31:29.180Z,91.50
2017-09-05T00:33:57.818Z,91.50
2017-09-05T00:36:25.889Z,91.50
2017-09-05T00:38:54.336Z,91.60
2017-09-05T00:41:23.102Z,91.60
2017-09-05T00:43:50.969Z,91.70
2017-09-05T00:46:19.601Z,91.70
2017-09-05T00:48:48.020Z,91.80
2017-09-05T00:51:18.265Z,92.10
2017-09-05T00:53:46.676Z,92.10
2017-09-05T00:56:15.176Z,92.30
2017-09-05T00:58:43.740Z,92.20
2017-09-05T01:01:12.177Z,92.20
2017-09-05T01:03:40.601Z,92.00
2017-09-05T01:06:08.345Z,92.00
2017-09-05T01:08:36.784Z,92.30
2017-09-05T01:11:04.564Z,92.30
2017-09-05T01:13:32.804Z,92.40
2017-09-05T01:16:01.212Z,92.30
2017-09-05T01:18:29.345Z,92.20
2017-09-05T01:20:57.053Z,92.30
2017-09-05T01:23:25.140Z,92.40
2017-09-05T01:25:53.740Z,92.60
2017-09-05T01:28:22.158Z,93.10
2017-09-05T01:30:50.644Z,92.60
2017-09-05T01:33:19.180Z,92.70
2017-09-05T01:35:47.625Z,92.70
2017-09-05T01:38:16.033Z,92.60
2017-09-05T01:40:44.777Z,92.40
2017-09-05T01:43:13.218Z,92.40
2017-09-05T01:45:41.644Z,92.40
2017-09-05T01:48:10.268Z,92.70
2017-09-05T01:50:38.755Z,92.70
2017-09-05T01:53:07.177Z,92.80
2017-09-05T01:55:35.736Z,93.00
2017-09-05T01:58:04.126Z,93.10
2017-09-05T02:00:32.801Z,93.10
2017-09-05T02:03:01.467Z,93.30
2017-09-05T02:05:29.899Z,93.50
2017-09-05T02:07:58.315Z,93.60
2017-09-05T02:10:26.761Z,93.70
2017-09-05T02:12:55.165Z,93.70
2017-09-05T02:15:23.577Z,93.70
2017-09-05T02:17:52.112Z,93.70
2017-09-05T02:20:20.541Z,93.90
2017-09-05T02:22:48.956Z,94.00
2017-09-05T02:25:17.439Z,94.10
2017-09-05T02:27:45.848Z,94.00
2017-09-05T02:30:14.261Z,94.10
2017-09-05T02:32:42.809Z,93.90
2017-09-05T02:35:11.550Z,93.90
2017-09-05T02:37:39.952Z,94.10
2017-09-05T02:40:08.552Z,94.10
2017-09-05T02:42:36.960Z,94.50
2017-09-05T02:45:05.400Z,94.40
2017-09-05T02:47:33.834Z,94.40
2017-09-05T02:50:02.254Z,94.50
2017-09-05T02:52:30.672Z,94.60
2017-09-05T02:54:59.332Z,94.60
2017-09-05T02:57:28.526Z,94.50
2017-09-05T02:59:56.948Z,94.50
2017-09-05T03:02:25.587Z,94.60
2017-09-05T03:04:54.010Z,94.70
2017-09-05T03:07:22.750Z,94.70
2017-09-05T03:09:51.230Z,94.60
2017-09-05T03:12:19.644Z,94.70
2017-09-05T03:14:48.064Z,94.80
2017-09-05T03:17:16.799Z,94.80
2017-09-05T03:19:45.905Z,94.90
2017-09-05T03:22:14.333Z,95.00
2017-09-05T03:24:42.945Z,94.90
2017-09-05T03:27:11.391Z,95.00
2017-09-05T03:29:39.801Z,94.80
2017-09-05T03:32:08.402Z,95.00
2017-09-05T03:34:36.826Z,95.00
2017-09-05T03:37:05.252Z,95.10
2017-09-05T03:39:33.918Z,95.00
2017-09-05T03:42:02.341Z,95.20
2017-09-05T03:44:30.757Z,95.00
2017-09-05T03:46:59.360Z,95.10
2017-09-05T03:49:27.780Z,95.00
2017-09-05T03:51:56.190Z,95.00
2017-09-05T03:54:24.685Z,95.00
2017-09-05T03:56:53.137Z,94.90
2017-09-05T03:59:21.555Z,94.90
2017-09-05T04:01:50.009Z,94.80
2017-09-05T04:04:18.424Z,94.90
2017-09-05T04:06:46.848Z,94.60
2017-09-05T04:09:15.495Z,94.60
2017-09-05T04:11:43.917Z,94.40
2017-09-05T04:14:12.333Z,94.20
2017-09-05T04:16:40.925Z,94.10
2017-09-05T04:19:09.338Z,94.00
2017-09-05T04:21:37.755Z,93.90
2017-09-05T04:24:06.361Z,93.80
2017-09-05T04:26:34.786Z,94.00
2017-09-05T04:29:03.217Z,93.90
2017-09-05T04:31:31.805Z,93.70
2017-09-05T04:34:00.229Z,93.80
2017-09-05T04:36:28.831Z,93.80
2017-09-05T04:38:57.465Z,94.00
2017-09-05T04:41:25.876Z,94.00
2017-09-05T04:43:54.288Z,94.00
2017-09-05T04:46:22.723Z,94.10
2017-09-05T04:48:51.123Z,94.10
2017-09-05T04:51:19.542Z,94.40
2017-09-05T04:53:48.113Z,94.30
2017-09-05T04:56:16.519Z,94.30
2017-09-05T04:58:44.953Z,94.30
2017-09-05T05:01:13.558Z,94.20
2017-09-05T05:03:41.974Z,94.30
2017-09-05T05:06:10.389Z,94.40
2017-09-05T05:08:39.001Z,94.30
2017-09-05T05:11:07.464Z,94.40
2017-09-05T05:13:35.901Z,94.30
2017-09-05T05:16:04.353Z,94.40
2017-09-05T05:18:33.052Z,94.20
2017-09-05T05:21:01.462Z,94.30
2017-09-05T05:23:30.099Z,94.20
2017-09-05T05:25:58.513Z,94.40
2017-09-05T05:28:27.257Z,94.60
2017-09-05T05:30:57.673Z,94.40
2017-09-05T05:33:26.116Z,94.50
2017-09-05T05:35:54.537Z,94.70
2017-09-05T05:38:22.992Z,94.70
2017-09-05T05:40:51.427Z,94.40
2017-09-05T05:43:19.863Z,94.20
2017-09-05T05:45:48.557Z,94.40
2017-09-05T05:48:17.017Z,94.50
2017-09-05T05:50:45.525Z,94.40
2017-09-05T05:53:14.112Z,94.30
2017-09-05T05:55:42.561Z,94.30
2017-09-05T05:58:11.046Z,94.20
2017-09-05T06:00:39.542Z,94.10
2017-09-05T06:03:07.982Z,94.00
2017-09-05T06:05:36.433Z,94.00
2017-09-05T06:08:05.088Z,93.90
2017-09-05T06:10:33.520Z,93.90
2017-09-05T06:13:01.951Z,93.80
2017-09-05T06:15:30.425Z,93.90
2017-09-05T06:17:58.862Z,93.90
2017-09-05T06:20:27.303Z,93.80
2017-09-05T06:22:55.965Z,93.80
2017-09-05T06:25:25.145Z,94.20
2017-09-05T06:27:53.576Z,94.20
2017-09-05T06:30:22.236Z,94.10
2017-09-05T06:32:50.658Z,94.20
2017-09-05T06:35:19.090Z,94.20
2017-09-05T06:37:47.725Z,94.10
2017-09-05T06:40:16.157Z,94.00
2017-09-05T06:42:44.589Z,94.00
2017-09-05T06:45:13.208Z,93.70
2017-09-05T06:47:41.637Z,93.80
2017-09-05T06:50:10.050Z,93.60
2017-09-05T06:52:38.483Z,93.60
2017-09-05T06:55:06.898Z,93.60
2017-09-05T06:57:35.374Z,93.60
2017-09-05T07:00:03.449Z,93.70
2017-09-05T07:02:31.874Z,93.40
2017-09-05T07:05:00.284Z,93.50
2017-09-05T07:07:28.748Z,93.20
2017-09-05T07:09:57.180Z,93.00
2017-09-05T07:12:25.603Z,92.80
2017-09-05T07:14:54.146Z,93.10
2017-09-05T07:17:23.324Z,92.50
2017-09-05T07:19:51.749Z,92.50
2017-09-05T07:22:20.315Z,92.50
2017-09-05T07:24:48.544Z,92.20
2017-09-05T07:27:16.967Z,92.00
2017-09-05T07:29:45.509Z,92.20
2017-09-05T07:32:13.931Z,92.30
2017-09-05T07:34:42.349Z,92.00
2017-09-05T07:37:10.913Z,91.80
2017-09-05T07:39:39.336Z,91.80
2017-09-05T07:42:07.749Z,91.70
2017-09-05T07:44:36.335Z,91.90
2017-09-05T07:47:04.781Z,91.80
2017-09-05T07:49:33.445Z,91.60
2017-09-05T07:52:01.903Z,91.60
2017-09-05T07:54:30.349Z,91.70
2017-09-05T07:56:58.781Z,91.60
2017-09-05T07:59:27.343Z,91.60
2017-09-05T08:01:56.019Z,91.70
2017-09-05T08:04:24.563Z,91.20
2017-09-05T08:06:53.015Z,91.10
2017-09-05T08:09:21.460Z,90.90
2017-09-05T08:11:49.893Z,90.70
2017-09-05T08:14:18.596Z,89.90
2017-09-05T08:16:47.022Z,89.60
2017-09-05T08:19:15.477Z,86.30
2017-09-05T08:21:44.198Z,81.10
2017-09-05T08:24:12.609Z,79.50
2017-09-05T08:26:41.071Z,80.30
2017-09-05T08:29:09.655Z,81.30
2017-09-05T08:31:38.088Z,81.60
2017-09-05T08:34:06.786Z,77.90
2017-09-05T08:36:35.261Z,77.00
2017-09-05T08:39:03.150Z,77.90
2017-09-05T08:41:31.568Z,78.60
2017-09-05T08:44:00.264Z,80.50
2017-09-05T08:46:28.680Z,81.10
2017-09-05T08:48:57.103Z,82.50
2017-09-05T08:51:26.346Z,80.90
2017-09-05T08:53:54.769Z,80.70
2017-09-05T08:56:23.196Z,79.30
2017-09-05T08:58:51.693Z,77.10
2017-09-05T09:01:20.149Z,73.90
2017-09-05T09:03:48.583Z,71.00
2017-09-05T09:06:17.024Z,69.60
2017-09-05T09:08:45.452Z,65.90
2017-09-05T09:11:13.881Z,63.80
2017-09-05T09:13:42.528Z,62.40
2017-09-05T09:16:10.941Z,61.60
2017-09-05T09:18:39.359Z,60.10
2017-09-05T09:21:07.970Z,59.60
2017-09-05T09:23:36.400Z,59.20
2017-09-05T09:26:04.830Z,58.70
2017-09-05T09:28:33.290Z,57.80
2017-09-05T09:31:01.706Z,56.40
2017-09-05T09:33:30.481Z,54.80
2017-09-05T09:35:59.055Z,55.40
2017-09-05T09:38:27.468Z,55.50
2017-09-05T09:40:55.888Z,56.80
2017-09-05T09:43:24.493Z,55.40
2017-09-05T09:45:52.913Z,54.90
2017-09-05T09:48:21.585Z,54.20
2017-09-05T09:50:50.245Z,53.30
2017-09-05T09:53:18.669Z,55.30
2017-09-05T09:55:47.092Z,57.80
2017-09-05T09:58:16.321Z,61.40
2017-09-05T10:00:44.748Z,61.40
2017-09-05T10:03:13.172Z,59.40
2017-09-05T10:05:41.842Z,61.10
2017-09-05T10:08:11.033Z,59.30
2017-09-05T10:10:39.476Z,59.20
2017-09-05T10:13:08.104Z,61.00
2017-09-05T10:15:36.521Z,61.60
2017-09-05T10:18:04.948Z,59.50
2017-09-05T10:20:33.422Z,58.10
2017-09-05T10:23:01.846Z,58.10
2017-09-05T10:25:30.512Z,58.70
2017-09-05T10:27:58.985Z,58.70
2017-09-05T10:30:27.433Z,59.30
2017-09-05T10:32:55.940Z,60.30
2017-09-05T10:35:24.507Z,59.30
2017-09-05T10:37:52.928Z,59.30
2017-09-05T10:40:21.349Z,59.20
2017-09-05T10:42:49.950Z,59.70
2017-09-05T10:45:18.405Z,61.00
2017-09-05T10:47:46.841Z,62.40
2017-09-05T10:50:15.286Z,63.80
2017-09-05T10:52:43.712Z,64.00
2017-09-05T10:55:12.142Z,63.40
2017-09-05T10:57:40.610Z,63.90
2017-09-05T11:00:09.023Z,64.00
2017-09-05T11:02:37.703Z,64.40
2017-09-05T11:05:06.381Z,64.50
2017-09-05T11:07:34.800Z,63.30
2017-09-05T11:10:03.245Z,63.10
2017-09-05T11:12:31.968Z,64.00
2017-09-05T11:15:00.398Z,65.00
2017-09-05T11:17:28.810Z,66.40
2017-09-05T11:19:57.267Z,68.00
2017-09-05T11:22:25.695Z,68.30
2017-09-05T11:24:54.122Z,67.20
2017-09-05T11:27:22.763Z,67.00
2017-09-05T11:29:51.437Z,67.40
2017-09-05T11:32:19.853Z,67.80
2017-09-05T11:34:48.329Z,68.80
2017-09-05T11:37:16.779Z,69.20
2017-09-05T11:39:45.345Z,68.90
2017-09-05T11:42:13.961Z,70.10
2017-09-05T11:44:42.370Z,70.70
2017-09-05T11:47:11.557Z,71.00
2017-09-05T11:49:40.026Z,70.90
2017-09-05T11:52:08.454Z,71.30
2017-09-05T11:54:36.879Z,70.40
2017-09-05T11:57:05.481Z,70.90
2017-09-05T11:59:33.901Z,71.00
2017-09-05T12:02:02.602Z,71.70
2017-09-05T12:04:31.060Z,71.30
2017-09-05T12:06:59.480Z,71.90
2017-09-05T12:09:27.923Z,72.40
2017-09-05T12:11:56.573Z,73.50
2017-09-05T12:14:25.101Z,73.20
2017-09-05T12:16:53.517Z,72.90
2017-09-05T12:19:22.120Z,73.00
2017-09-05T12:21:50.572Z,73.30
2017-09-05T12:24:19.000Z,72.70
2017-09-05T12:26:47.669Z,73.00
2017-09-05T12:29:16.858Z,73.40
2017-09-05T12:31:44.957Z,73.00
2017-09-05T12:34:13.525Z,72.70
2017-09-05T12:36:41.266Z,72.50
2017-09-05T12:39:09.476Z,72.70
2017-09-05T12:41:37.642Z,72.60
2017-09-05T12:44:05.709Z,72.70
2017-09-05T12:46:34.141Z,73.30
2017-09-05T12:49:02.741Z,73.40
2017-09-05T12:51:31.154Z,72.60
2017-09-05T12:53:59.383Z,72.80
2017-09-05T12:56:28.002Z,69.20
2017-09-05T12:58:56.408Z,69.70
2017-09-05T13:01:24.841Z,69.10
2017-09-05T13:03:53.693Z,70.80
2017-09-05T13:06:22.191Z,70.50
2017-09-05T13:08:50.911Z,69.60
2017-09-05T13:11:19.560Z,70.80
2017-09-05T13:13:48.206Z,70.60
2017-09-05T13:16:16.654Z,69.80
2017-09-05T13:18:45.152Z,71.30
2017-09-05T13:21:13.684Z,70.60
2017-09-05T13:23:42.103Z,71.00
2017-09-05T13:26:10.613Z,72.50
2017-09-05T13:28:39.068Z,70.40
2017-09-05T13:31:07.500Z,71.80
2017-09-05T13:33:35.966Z,73.10
2017-09-05T13:36:04.646Z,71.30
2017-09-05T13:38:33.067Z,72.00
2017-09-05T13:41:01.918Z,72.40
2017-09-05T13:43:31.312Z,71.90
2017-09-05T13:45:59.772Z,71.90
2017-09-05T13:48:28.349Z,72.50
2017-09-05T13:50:56.799Z,71.20
2017-09-05T13:53:25.236Z,70.30
2017-09-05T13:55:53.866Z,70.40
2017-09-05T13:58:22.289Z,71.10
2017-09-05T14:00:50.708Z,72.30
2017-09-05T14:03:19.351Z,70.80
2017-09-05T14:05:47.998Z,71.40
2017-09-05T14:08:16.423Z,71.00
2017-09-05T14:10:47.186Z,70.60
2017-09-05T14:13:17.097Z,72.00
2017-09-05T14:15:51.418Z,72.40
2017-09-05T14:18:24.992Z,71.30
2017-09-05T14:20:53.663Z,72.60
2017-09-05T14:23:22.065Z,73.00
2017-09-05T14:25:50.516Z,73.70
2017-09-05T14:28:19.008Z,72.50
2017-09-05T14:30:47.418Z,73.30
2017-09-05T14:33:15.841Z,75.20
2017-09-05T14:35:44.289Z,73.10
2017-09-05T14:38:12.721Z,73.50
2017-09-05T14:40:41.197Z,75.10
2017-09-05T14:43:09.648Z,74.90
2017-09-05T14:45:38.068Z,73.90
2017-09-05T14:48:06.640Z,73.90
2017-09-05T14:50:35.215Z,74.20
2017-09-05T14:53:03.857Z,74.30
2017-09-05T14:55:32.287Z,74.50
2017-09-05T14:58:00.749Z,74.20
2017-09-05T15:00:29.166Z,74.00
2017-09-05T15:02:57.628Z,74.20
2017-09-05T15:05:26.082Z,74.90
2017-09-05T15:07:54.547Z,75.30
2017-09-05T15:10:22.989Z,74.90
2017-09-05T15:12:52.190Z,76.30
2017-09-05T15:15:20.605Z,75.60
2017-09-05T15:17:49.055Z,75.30
2017-09-05T15:20:17.575Z,75.50
2017-09-05T15:22:46.020Z,75.90
2017-09-05T15:25:14.463Z,76.10
2017-09-05T15:27:42.981Z,75.40
2017-09-05T15:30:12.285Z,74.30
2017-09-05T15:32:40.717Z,74.30
2017-09-05T15:35:09.149Z,73.70
2017-09-05T15:37:37.876Z,73.50
2017-09-05T15:40:06.346Z,73.40
2017-09-05T15:42:34.780Z,73.40
2017-09-05T15:45:03.195Z,73.70
2017-09-05T15:47:31.615Z,73.70
2017-09-05T15:50:00.054Z,73.30
2017-09-05T15:52:28.465Z,74.50
2017-09-05T15:54:56.933Z,73.20
2017-09-05T15:57:25.381Z,74.10
2017-09-05T15:59:53.798Z,74.50
2017-09-05T16:02:22.222Z,74.30
2017-09-05T16:04:50.677Z,74.80
2017-09-05T16:07:19.098Z,74.30
2017-09-05T16:09:47.647Z,74.60
2017-09-05T16:12:16.101Z,75.70
2017-09-05T16:14:44.541Z,75.90
2017-09-05T16:17:12.963Z,75.70
2017-09-05T16:19:41.462Z,75.80
2017-09-05T16:22:09.873Z,75.60
2017-09-05T16:24:38.295Z,76.20
2017-09-05T16:27:06.987Z,76.50
2017-09-05T16:29:35.414Z,76.60
2017-09-05T16:32:03.820Z,76.80
2017-09-05T16:34:32.265Z,76.30
2017-09-05T16:37:01.046Z,75.70
2017-09-05T16:39:29.473Z,76.50
2017-09-05T16:41:57.913Z,76.70
2017-09-05T16:44:26.341Z,77.40
2017-09-05T16:46:54.785Z,77.60
2017-09-05T16:49:23.220Z,78.40
2017-09-05T16:51:52.462Z,78.40
2017-09-05T16:54:20.880Z,78.40
2017-09-05T16:56:49.320Z,79.10
2017-09-05T16:59:17.721Z,78.90
2017-09-05T17:01:46.140Z,79.30
2017-09-05T17:04:14.595Z,79.40
2017-09-05T17:06:43.273Z,79.70
2017-09-05T17:09:11.706Z,80.20
2017-09-05T17:11:40.160Z,80.00
2017-09-05T17:14:08.590Z,79.70
2017-09-05T17:16:37.054Z,79.70
2017-09-05T17:19:05.503Z,79.50
2017-09-05T17:21:34.669Z,79.50
2017-09-05T17:24:04.743Z,79.50
2017-09-05T17:26:33.168Z,80.30
2017-09-05T17:29:01.600Z,80.40
2017-09-05T17:31:30.040Z,80.10
2017-09-05T17:33:58.442Z,80.30
2017-09-05T17:36:26.866Z,80.70
2017-09-05T17:38:55.326Z,81.00
2017-09-05T17:41:23.768Z,81.10
2017-09-05T17:43:52.248Z,81.00
2017-09-05T17:46:20.881Z,81.60
2017-09-05T17:48:49.424Z,81.20
2017-09-05T17:51:17.915Z,81.20
2017-09-05T17:53:46.374Z,81.20
2017-09-05T17:56:14.763Z,81.10
2017-09-05T17:58:43.162Z,81.50
2017-09-05T18:01:11.666Z,81.70
2017-09-05T18:03:40.129Z,81.40
2017-09-05T18:06:08.550Z,81.70
2017-09-05T18:08:36.993Z,81.90
2017-09-05T18:11:05.427Z,81.50
2017-09-05T18:13:34.430Z,82.30
2017-09-05T18:16:02.899Z,82.30
2017-09-05T18:18:32.088Z,83.50
2017-09-05T18:21:00.508Z,83.50
2017-09-05T18:23:29.238Z,84.00
2017-09-05T18:25:57.656Z,83.60
2017-09-05T18:28:26.104Z,83.30
2017-09-05T18:30:54.562Z,83.80
2017-09-05T18:33:22.976Z,83.70
2017-09-05T18:35:51.394Z,84.70
2017-09-05T18:38:19.832Z,84.60
2017-09-05T18:40:49.024Z,85.20
2017-09-05T18:43:17.451Z,85.10
2017-09-05T18:45:45.913Z,85.90
2017-09-05T18:48:14.364Z,86.30
2017-09-05T18:50:42.832Z,86.00
2017-09-05T18:53:11.301Z,85.50
2017-09-05T18:55:39.733Z,86.10
2017-09-05T18:58:08.158Z,85.70
2017-09-05T19:00:36.626Z,86.40
2017-09-05T19:03:05.070Z,86.00
2017-09-05T19:05:35.340Z,85.10
2017-09-05T19:08:03.779Z,85.10
2017-09-05T19:10:32.232Z,85.00
2017-09-05T19:13:01.678Z,83.60
2017-09-05T19:15:30.129Z,83.50
2017-09-05T19:17:58.736Z,83.00
2017-09-05T19:20:27.164Z,82.70
2017-09-05T19:22:55.626Z,82.20
2017-09-05T19:25:24.037Z,82.30
2017-09-05T19:27:52.476Z,82.20
2017-09-05T19:30:20.965Z,82.00
2017-09-05T19:32:49.435Z,82.20
2017-09-05T19:35:17.870Z,82.70
2017-09-05T19:37:46.346Z,82.50
2017-09-05T19:40:14.772Z,82.10
2017-09-05T19:42:43.174Z,82.10
2017-09-05T19:45:11.631Z,81.90
2017-09-05T19:47:40.046Z,81.60
2017-09-05T19:50:08.471Z,81.60
2017-09-05T19:52:36.913Z,81.60
2017-09-05T19:55:05.350Z,81.50
2017-09-05T19:57:33.774Z,81.60
2017-09-05T20:00:02.189Z,81.70
2017-09-05T20:02:30.621Z,81.70
2017-09-05T20:04:59.045Z,81.70
2017-09-05T20:07:27.520Z,81.90
2017-09-05T20:09:55.948Z,81.70
2017-09-05T20:12:25.170Z,81.70
2017-09-05T20:14:53.634Z,81.70
2017-09-05T20:17:22.065Z,81.80
2017-09-05T20:19:50.493Z,81.40
2017-09-05T20:22:19.709Z,81.40
2017-09-05T20:24:48.194Z,82.20
2017-09-05T20:27:17.409Z,80.70
2017-09-05T20:29:45.688Z,80.60
2017-09-05T20:32:14.114Z,81.10
2017-09-05T20:34:42.521Z,80.80
2017-09-05T20:37:10.971Z,80.60
2017-09-05T20:39:40.183Z,80.60
2017-09-05T20:42:08.598Z,80.50
2017-09-05T20:44:37.040Z,80.30
2017-09-05T20:47:05.497Z,80.30
2017-09-05T20:49:33.926Z,80.00
2017-09-05T20:52:02.394Z,80.30
2017-09-05T20:54:30.887Z,80.20
2017-09-05T20:56:59.304Z,80.10
2017-09-05T20:59:27.833Z,80.10
2017-09-05T21:01:56.361Z,80.00
2017-09-05T21:04:24.823Z,79.90
2017-09-05T21:06:53.389Z,79.90
2017-09-05T21:09:22.085Z,80.10
2017-09-05T21:11:50.648Z,79.80
2017-09-05T21:14:19.534Z,79.80
2017-09-05T21:16:48.137Z,79.80
2017-09-05T21:19:16.795Z,80.00
2017-09-05T21:21:45.330Z,79.90
2017-09-05T21:24:13.788Z,80.10
2017-09-05T21:26:42.216Z,80.20
2017-09-05T21:29:10.753Z,80.40
2017-09-05T21:31:39.200Z,80.60
2017-09-05T21:34:07.742Z,80.50
2017-09-05T21:36:36.359Z,81.10
2017-09-05T21:39:04.228Z,81.20
2017-09-05T21:41:32.711Z,81.80
2017-09-05T21:44:01.311Z,81.30
2017-09-05T21:46:29.748Z,81.40
2017-09-05T21:48:58.226Z,81.50
2017-09-05T21:51:26.713Z,82.20
2017-09-05T21:53:55.233Z,81.60
2017-09-05T21:56:23.671Z,82.10
2017-09-05T21:58:52.145Z,82.00
2017-09-05T22:01:20.625Z,82.10
2017-09-05T22:03:48.722Z,82.20
2017-09-05T22:06:17.330Z,82.60
2017-09-05T22:08:46.001Z,82.60
2017-09-05T22:11:14.416Z,82.50
2017-09-05T22:13:42.776Z,82.60
2017-09-05T22:16:11.019Z,82.60
2017-09-05T22:18:44.928Z,82.90
2017-09-05T22:21:18.868Z,82.90
2017-09-05T22:23:47.126Z,82.90
2017-09-05T22:26:20.964Z,83.40
2017-09-05T22:28:54.985Z,82.80
2017-09-05T22:31:23.419Z,82.90
2017-09-05T22:33:51.855Z,83.40
2017-09-05T22:36:20.308Z,83.00
2017-09-05T22:38:48.731Z,83.20
2017-09-05T22:41:17.931Z,83.00
2017-09-05T22:43:46.382Z,83.00
2017-09-05T22:46:14.797Z,83.10
2017-09-05T22:48:43.245Z,83.30
2017-09-05T22:51:11.751Z,83.10
2017-09-05T22:53:40.174Z,83.60
2017-09-05T22:56:09.615Z,83.70
2017-09-05T22:58:38.318Z,83.60
2017-09-05T23:01:07.499Z,83.80
2017-09-05T23:03:36.686Z,83.80
2017-09-05T23:06:04.761Z,83.80
2017-09-05T23:08:33.977Z,83.50
2017-09-05T23:11:02.400Z,83.50
2017-09-05T23:13:31.851Z,84.00
2017-09-05T23:16:00.272Z,83.90
2017-09-05T23:18:29.329Z,84.20
2017-09-05T23:20:58.028Z,84.00
2017-09-05T23:23:26.452Z,84.20
2017-09-05T23:25:54.857Z,84.30
2017-09-05T23:28:24.059Z,84.70
2017-09-05T23:30:52.488Z,84.60
2017-09-05T23:33:20.927Z,84.70
2017-09-05T23:35:49.366Z,84.70
2017-09-05T23:38:17.780Z,84.50
2017-09-05T23:40:46.215Z,84.50
2017-09-05T23:43:14.635Z,84.70
2017-09-05T23:45:43.049Z,85.10
2017-09-05T23:48:11.516Z,85.20
2017-09-05T23:50:40.006Z,85.40
2017-09-05T23:53:08.548Z,85.70
2017-09-05T23:55:37.013Z,85.90
2017-09-05T23:58:05.507Z,86.40
